Time;durP1;ratioP1;P1;durP2;ratioP2;P2;SDS_P1;SDS_P2;PMS_P1;PMS_P2;Temp;Humidity;BMP_temperature;BMP_pressure;BME280_temperature;BME280_humidity;BME280_pressure;Samples;Min_cycle;Max_cycle;Signal;HPM_P1;HPM_P2
2022/07/04 00:00:37;;;;;;;8.13;3.92;;;15.70;99.90;;;;;;5010885;28;20037;-66
2022/07/04 00:03:03;;;;;;;5.32;3.88;;;15.70;99.90;;;;;;5019345;28;20033;-66
2022/07/04 00:05:29;;;;;;;4.95;3.80;;;15.60;99.90;;;;;;5021901;28;20092;-66
2022/07/04 00:07:54;;;;;;;8.10;4.05;;;15.60;99.90;;;;;;5022458;28;20492;-67
2022/07/04 00:10:20;;;;;;;4.63;3.85;;;15.50;99.90;;;;;;5026535;28;20040;-67
2022/07/04 00:12:46;;;;;;;8.77;4.10;;;15.50;99.90;;;;;;5014537;28;20166;-66
2022/07/04 00:15:13;;;;;;;6.13;3.30;;;15.60;99.90;;;;;;5010112;28;20029;-66
2022/07/04 00:17:39;;;;;;;4.82;3.58;;;15.50;99.90;;;;;;5020384;28;20040;-66
2022/07/04 00:20:06;;;;;;;9.75;3.85;;;15.50;99.90;;;;;;5036480;28;20036;-66
2022/07/04 00:22:32;;;;;;;7.30;3.92;;;15.50;99.90;;;;;;5007827;28;20057;-67
2022/07/04 00:24:58;;;;;;;7.90;3.50;;;15.40;99.90;;;;;;5010411;28;20048;-66
2022/07/04 00:27:24;;;;;;;6.18;3.75;;;15.50;99.90;;;;;;5009862;28;20041;-66
2022/07/04 00:29:50;;;;;;;8.02;3.83;;;15.50;99.90;;;;;;5010384;28;20073;-67
2022/07/04 00:32:15;;;;;;;5.85;3.90;;;15.50;99.90;;;;;;5015103;28;20038;-67
2022/07/04 00:34:41;;;;;;;5.60;3.70;;;15.50;99.90;;;;;;5017277;28;20045;-67
2022/07/04 00:37:07;;;;;;;6.63;4.30;;;15.50;99.90;;;;;;5014084;28;20117;-66
2022/07/04 00:39:33;;;;;;;9.18;4.28;;;15.40;99.90;;;;;;5014452;28;20049;-66
2022/07/04 00:41:58;;;;;;;4.85;3.47;;;15.40;99.90;;;;;;5014004;28;20041;-66
2022/07/04 00:44:24;;;;;;;7.72;3.90;;;15.30;99.90;;;;;;5011768;28;20107;-68
2022/07/04 00:46:50;;;;;;;5.90;3.67;;;15.30;99.90;;;;;;4997667;28;20559;-66
2022/07/04 00:49:17;;;;;;;7.93;3.70;;;15.30;99.90;;;;;;4997527;28;20052;-67
2022/07/04 00:51:43;;;;;;;6.35;3.30;;;15.20;99.90;;;;;;5023266;28;20046;-66
2022/07/04 00:54:14;;;;;;;6.70;3.70;;;15.20;99.90;;;;;;5015443;28;20033;-67
2022/07/04 00:56:42;;;;;;;6.05;4.22;;;15.20;99.90;;;;;;4997870;28;20413;-66
2022/07/04 00:59:09;;;;;;;5.68;3.70;;;15.20;99.90;;;;;;5011093;28;20125;-67
2022/07/04 01:01:35;;;;;;;5.97;3.90;;;15.20;99.90;;;;;;5015220;28;20049;-66
2022/07/04 01:04:02;;;;;;;7.10;3.72;;;15.20;99.90;;;;;;4996884;28;20033;-67
2022/07/04 01:06:28;;;;;;;7.20;4.18;;;15.10;99.90;;;;;;5012717;28;20045;-67
2022/07/04 01:08:55;;;;;;;6.00;4.20;;;15.20;99.90;;;;;;4999767;28;20052;-67
2022/07/04 01:11:21;;;;;;;5.65;3.80;;;15.10;99.90;;;;;;5030834;28;20045;-67
2022/07/04 01:13:46;;;;;;;5.22;4.30;;;15.00;99.90;;;;;;5010887;28;20091;-67
2022/07/04 01:16:13;;;;;;;6.28;4.43;;;14.90;99.90;;;;;;5012382;28;20046;-67
2022/07/04 01:18:40;;;;;;;8.90;5.05;;;14.90;99.90;;;;;;5013705;28;20041;-67
2022/07/04 01:21:06;;;;;;;7.95;4.82;;;14.80;99.90;;;;;;5018990;28;20080;-68
2022/07/04 01:23:40;;;;;;;7.03;5.30;;;14.80;99.90;;;;;;5032452;28;20073;-68
2022/07/04 01:26:07;;;;;;;8.05;5.03;;;14.80;99.90;;;;;;5036731;28;20098;-68
2022/07/04 01:28:33;;;;;;;6.78;4.60;;;14.80;99.90;;;;;;5028734;28;20387;-67
2022/07/04 01:30:59;;;;;;;6.55;5.18;;;14.70;99.90;;;;;;5031869;28;20073;-68
2022/07/04 01:33:25;;;;;;;8.23;5.40;;;14.60;99.90;;;;;;5032269;28;20040;-67
2022/07/04 01:35:50;;;;;;;7.88;5.28;;;14.60;99.90;;;;;;5039871;28;20037;-68
2022/07/04 01:38:16;;;;;;;7.47;5.07;;;14.50;99.90;;;;;;5050123;28;20037;-68
2022/07/04 01:40:42;;;;;;;8.27;5.43;;;14.40;99.90;;;;;;5032375;28;20063;-69
2022/07/04 01:43:07;;;;;;;7.35;5.05;;;14.40;99.90;;;;;;5035653;28;20128;-68
2022/07/04 01:45:37;;;;;;;8.85;5.88;;;14.30;99.90;;;;;;5032619;28;20537;-67
2022/07/04 01:48:06;;;;;;;8.18;5.78;;;14.30;99.90;;;;;;5014663;28;20041;-67
2022/07/04 01:50:32;;;;;;;10.25;5.53;;;14.20;99.90;;;;;;5035916;28;20689;-68
2022/07/04 01:52:57;;;;;;;8.95;5.45;;;14.20;99.90;;;;;;5034772;28;20037;-67
2022/07/04 01:55:23;;;;;;;8.30;5.90;;;14.20;99.90;;;;;;5032613;28;20032;-68
2022/07/04 01:57:49;;;;;;;8.32;5.43;;;14.20;99.90;;;;;;5027550;28;20347;-67
2022/07/04 02:02:59;;;;;;;7.55;5.55;;;14.10;99.90;;;;;;5031824;28;20041;-67
2022/07/04 02:05:24;;;;;;;6.50;5.28;;;14.10;99.90;;;;;;5033458;28;20044;-67
2022/07/04 02:07:50;;;;;;;7.65;5.45;;;14.00;99.90;;;;;;5033634;28;20037;-67
2022/07/04 02:10:17;;;;;;;9.95;5.57;;;14.00;99.90;;;;;;5041058;28;20057;-67
2022/07/04 02:15:27;;;;;;;9.82;5.60;;;14.00;99.90;;;;;;5050291;28;20055;-67
2022/07/04 02:17:53;;;;;;;8.93;5.72;;;14.00;99.90;;;;;;5018564;28;20470;-67
2022/07/04 02:20:19;;;;;;;7.45;5.90;;;14.10;99.90;;;;;;5031813;28;20037;-68
2022/07/04 02:22:44;;;;;;;9.98;6.00;;;14.10;99.90;;;;;;5009338;28;20514;-68
2022/07/04 02:25:11;;;;;;;8.63;5.60;;;14.00;99.90;;;;;;5010267;28;20052;-67
2022/07/04 02:27:37;;;;;;;8.80;5.35;;;13.90;99.90;;;;;;5013441;28;20056;-67
2022/07/04 02:30:04;;;;;;;7.53;5.80;;;13.90;99.90;;;;;;5005264;28;20481;-67
2022/07/04 02:32:30;;;;;;;10.32;6.13;;;13.90;99.90;;;;;;5011361;28;20034;-67
2022/07/04 02:34:56;;;;;;;6.68;5.82;;;14.00;99.90;;;;;;5000014;28;20060;-67
2022/07/04 02:37:21;;;;;;;9.25;5.45;;;13.90;99.90;;;;;;5012130;28;20029;-66
2022/07/04 02:39:47;;;;;;;9.50;6.07;;;13.90;99.90;;;;;;5012378;28;20120;-68
2022/07/04 02:42:12;;;;;;;7.22;5.85;;;13.90;99.90;;;;;;5007940;28;20090;-67
2022/07/04 02:44:38;;;;;;;11.07;5.88;;;13.90;99.90;;;;;;5002154;28;20049;-67
2022/07/04 02:47:04;;;;;;;11.10;5.90;;;13.90;99.90;;;;;;5012219;28;20056;-67
2022/07/04 02:49:30;;;;;;;10.40;6.55;;;13.80;99.90;;;;;;4997339;28;20034;-68
2022/07/04 02:51:57;;;;;;;8.18;6.22;;;13.70;99.90;;;;;;5013570;28;20390;-68
2022/07/04 02:54:22;;;;;;;8.35;6.53;;;13.70;99.90;;;;;;5011065;28;20026;-67
2022/07/04 02:56:48;;;;;;;9.65;6.55;;;13.80;99.90;;;;;;5001236;28;20040;-67
2022/07/04 02:59:14;;;;;;;9.65;6.10;;;13.70;99.90;;;;;;5008960;28;20045;-67
2022/07/04 03:01:39;;;;;;;8.00;6.68;;;13.70;99.90;;;;;;5010216;28;20038;-67
2022/07/04 03:04:05;;;;;;;8.95;6.93;;;13.70;99.90;;;;;;5013748;28;20052;-69
2022/07/04 03:06:30;;;;;;;8.93;7.00;;;13.70;99.90;;;;;;5023937;28;20485;-67
2022/07/04 03:08:56;;;;;;;10.63;6.82;;;13.60;99.90;;;;;;5012611;28;20061;-67
2022/07/04 03:11:22;;;;;;;11.45;7.32;;;13.60;99.90;;;;;;5007832;28;20052;-67
2022/07/04 03:13:48;;;;;;;11.00;7.72;;;13.60;99.90;;;;;;5008964;28;20041;-67
2022/07/04 03:16:14;;;;;;;11.70;7.43;;;13.60;99.90;;;;;;5035439;28;20069;-68
2022/07/04 03:18:40;;;;;;;13.00;8.07;;;13.60;99.90;;;;;;5013793;28;20038;-68
2022/07/04 03:21:05;;;;;;;13.82;8.63;;;13.60;99.90;;;;;;5011112;28;20505;-68
2022/07/04 03:23:32;;;;;;;11.43;8.15;;;13.60;99.90;;;;;;5006047;28;20053;-67
2022/07/04 03:25:58;;;;;;;11.13;7.95;;;13.60;99.90;;;;;;5010184;28;20452;-67
2022/07/04 03:28:24;;;;;;;11.63;8.52;;;13.60;99.90;;;;;;4997669;28;20124;-68
2022/07/04 03:30:49;;;;;;;13.63;7.88;;;13.60;99.90;;;;;;5010219;28;20064;-67
2022/07/04 03:33:15;;;;;;;10.65;8.70;;;13.60;99.90;;;;;;5011788;28;20651;-68
2022/07/04 03:35:41;;;;;;;11.20;8.43;;;13.60;99.90;;;;;;5012240;28;20034;-69
2022/07/04 03:38:06;;;;;;;9.82;7.93;;;13.60;99.90;;;;;;5011211;28;20042;-68
2022/07/04 03:40:35;;;;;;;12.95;7.60;;;13.60;99.90;;;;;;5006601;28;20046;-68
2022/07/04 03:43:00;;;;;;;13.15;8.63;;;13.60;99.90;;;;;;5009145;28;20069;-67
2022/07/04 03:45:26;;;;;;;13.07;8.23;;;13.70;99.90;;;;;;5011151;28;20040;-67
2022/07/04 03:47:52;;;;;;;14.20;8.35;;;13.60;99.90;;;;;;5011140;28;20107;-67
2022/07/04 03:50:17;;;;;;;11.77;7.60;;;13.60;99.90;;;;;;5011975;28;20046;-68
2022/07/04 03:52:46;;;;;;;10.10;7.75;;;13.60;99.90;;;;;;5025525;28;20103;-67
2022/07/04 03:55:12;;;;;;;10.20;7.53;;;13.60;99.90;;;;;;5010087;28;20045;-67
2022/07/04 03:57:37;;;;;;;12.13;7.20;;;13.70;99.90;;;;;;5011136;28;20113;-67
2022/07/04 04:00:04;;;;;;;9.85;7.60;;;13.60;99.90;;;;;;5009358;28;20033;-67
2022/07/04 04:02:29;;;;;;;12.57;7.05;;;13.70;99.90;;;;;;5008181;28;20029;-67
2022/07/04 04:07:39;;;;;;;11.13;7.43;;;13.90;99.90;;;;;;5016392;28;20037;-67
2022/07/04 04:10:06;;;;;;;9.05;7.53;;;13.80;99.90;;;;;;5015061;28;20045;-67
2022/07/04 04:12:31;;;;;;;10.27;7.28;;;13.80;99.90;;;;;;5011730;28;20069;-67
2022/07/04 04:14:57;;;;;;;11.27;7.35;;;13.90;99.90;;;;;;5009645;28;20057;-67
2022/07/04 04:17:23;;;;;;;11.02;7.20;;;13.90;99.90;;;;;;4986363;28;20042;-67
2022/07/04 04:19:48;;;;;;;14.70;7.22;;;14.00;99.90;;;;;;5006075;28;20037;-67
2022/07/04 04:22:14;;;;;;;12.65;6.95;;;14.00;99.90;;;;;;5015122;28;20483;-67
2022/07/04 04:24:40;;;;;;;12.02;7.05;;;14.00;99.90;;;;;;5006925;28;20134;-67
2022/07/04 04:27:06;;;;;;;8.82;6.60;;;14.00;99.90;;;;;;5006831;28;20379;-68
2022/07/04 04:29:32;;;;;;;9.90;7.25;;;14.00;99.90;;;;;;4994200;28;20459;-68
2022/07/04 04:31:57;;;;;;;8.65;6.65;;;14.00;99.90;;;;;;5012788;28;20119;-67
2022/07/04 04:34:23;;;;;;;11.63;6.95;;;14.10;99.90;;;;;;5008053;28;20034;-67
2022/07/04 04:36:48;;;;;;;10.55;6.75;;;14.20;99.90;;;;;;5001071;28;20364;-67
2022/07/04 04:39:15;;;;;;;9.88;5.90;;;14.10;99.90;;;;;;5005070;28;20048;-67
2022/07/04 04:41:40;;;;;;;11.98;6.47;;;14.30;99.90;;;;;;5013678;28;20103;-67
2022/07/04 04:44:06;;;;;;;9.68;6.00;;;14.40;99.90;;;;;;4996587;28;20428;-67
2022/07/04 04:46:32;;;;;;;8.52;6.18;;;14.40;99.90;;;;;;5000408;28;20060;-68
2022/07/04 04:48:58;;;;;;;8.15;5.55;;;14.50;99.90;;;;;;5013171;28;20128;-67
2022/07/04 04:51:23;;;;;;;10.15;6.22;;;14.50;99.90;;;;;;4999704;28;20422;-67
2022/07/04 04:53:49;;;;;;;9.45;5.80;;;14.60;99.90;;;;;;5014628;28;20041;-68
2022/07/04 04:56:15;;;;;;;7.68;5.63;;;14.70;99.90;;;;;;4996934;28;20702;-68
2022/07/04 04:58:40;;;;;;;12.45;6.25;;;14.70;99.90;;;;;;5013204;28;20068;-68
2022/07/04 05:01:06;;;;;;;9.63;5.30;;;15.10;99.90;;;;;;5010795;28;20041;-68
2022/07/04 05:03:32;;;;;;;9.70;5.40;;;15.60;99.90;;;;;;5013066;28;20115;-67
2022/07/04 05:05:57;;;;;;;12.07;5.03;;;16.10;99.90;;;;;;5013504;28;20237;-68
2022/07/04 05:08:26;;;;;;;6.40;4.45;;;16.60;99.90;;;;;;5011785;28;20040;-67
2022/07/04 05:10:52;;;;;;;10.93;5.15;;;16.80;99.90;;;;;;5014027;28;20502;-68
2022/07/04 05:13:19;;;;;;;10.23;4.70;;;17.10;99.90;;;;;;5011606;28;20034;-67
2022/07/04 05:15:45;;;;;;;6.95;4.50;;;17.70;99.90;;;;;;5008955;28;20045;-67
2022/07/04 05:18:11;;;;;;;7.35;4.28;;;18.30;99.90;;;;;;5009802;28;20379;-67
2022/07/04 05:20:37;;;;;;;7.60;4.25;;;18.70;99.90;;;;;;5010960;28;20069;-67
2022/07/04 05:23:03;;;;;;;7.90;4.47;;;19.00;99.90;;;;;;5008809;28;20129;-68
2022/07/04 05:25:29;;;;;;;7.72;4.20;;;19.20;99.90;;;;;;5010779;28;20041;-67
2022/07/04 05:27:54;;;;;;;10.65;4.53;;;19.50;99.90;;;;;;5008728;28;20045;-66
2022/07/04 05:30:20;;;;;;;9.05;4.10;;;19.60;99.90;;;;;;5014171;28;20046;-67
2022/07/04 05:32:45;;;;;;;5.45;3.75;;;20.40;99.90;;;;;;5020069;28;20140;-67
2022/07/04 05:35:11;;;;;;;5.63;3.85;;;20.90;99.90;;;;;;5029590;28;20037;-66
2022/07/04 05:37:37;;;;;;;8.23;4.07;;;21.40;99.90;;;;;;5013827;28;20069;-66
2022/07/04 05:40:03;;;;;;;6.28;3.83;;;21.60;99.90;;;;;;5011347;28;20116;-66
2022/07/04 05:42:29;;;;;;;6.55;3.75;;;22.10;99.90;;;;;;4998957;28;20406;-65
2022/07/04 05:44:55;;;;;;;6.40;3.17;;;22.60;99.90;;;;;;5017565;28;20116;-66
2022/07/04 05:47:23;;;;;;;8.02;3.85;;;23.00;99.90;;;;;;4983521;28;20422;-66
2022/07/04 05:49:49;;;;;;;5.80;3.67;;;23.10;99.90;;;;;;5001595;28;20416;-68
2022/07/04 05:52:15;;;;;;;8.13;3.58;;;23.30;99.90;;;;;;5011102;28;20037;-67
2022/07/04 05:54:41;;;;;;;6.15;3.80;;;23.40;99.90;;;;;;4994664;28;20128;-63
2022/07/04 05:57:07;;;;;;;6.53;3.70;;;23.30;99.90;;;;;;4997041;28;20098;-64
2022/07/04 05:59:32;;;;;;;5.93;3.72;;;23.60;99.90;;;;;;5013106;28;20037;-65
2022/07/04 06:01:58;;;;;;;7.15;3.67;;;23.90;99.90;;;;;;5015367;28;20287;-65
2022/07/04 06:04:24;;;;;;;7.10;3.63;;;24.10;99.90;;;;;;5011464;28;20371;-64
2022/07/04 06:06:50;;;;;;;5.88;3.42;;;23.80;99.90;;;;;;5011830;28;20363;-64
2022/07/04 06:09:15;;;;;;;7.55;3.78;;;23.10;99.90;;;;;;4998476;28;20053;-66
2022/07/04 06:11:41;;;;;;;8.48;3.92;;;22.30;99.90;;;;;;5001407;28;20037;-66
2022/07/04 06:14:07;;;;;;;6.70;3.42;;;21.40;99.90;;;;;;4978639;28;20479;-66
2022/07/04 06:16:33;;;;;;;8.45;3.72;;;21.10;99.90;;;;;;5015886;28;20113;-66
2022/07/04 06:18:58;;;;;;;8.48;3.60;;;21.10;99.90;;;;;;4999713;28;20040;-67
2022/07/04 06:21:24;;;;;;;7.55;3.65;;;21.30;99.90;;;;;;5005898;28;20045;-67
2022/07/04 06:23:50;;;;;;;8.45;3.50;;;21.90;99.90;;;;;;5021494;28;20045;-67
2022/07/04 06:26:15;;;;;;;7.50;3.58;;;22.40;99.90;;;;;;5032923;28;20084;-68
2022/07/04 06:28:41;;;;;;;6.18;3.58;;;22.90;99.90;;;;;;5012309;28;20122;-67
2022/07/04 06:31:07;;;;;;;7.18;3.60;;;23.30;99.90;;;;;;5019799;28;20072;-67
2022/07/04 06:35:44;;;;;;;7.03;3.92;;;23.70;99.90;;;;;;5033949;28;20511;-68
2022/07/04 06:36:18;;;;;;;10.00;3.97;;;24.00;99.90;;;;;;5031729;28;20032;-67
2022/07/04 06:38:43;;;;;;;7.35;3.40;;;24.10;99.90;;;;;;5031477;28;20470;-67
2022/07/04 06:41:10;;;;;;;9.40;3.58;;;24.10;99.90;;;;;;5029811;28;20462;-67
2022/07/04 06:43:35;;;;;;;6.75;3.90;;;24.30;99.90;;;;;;5029061;28;20045;-67
2022/07/04 06:46:01;;;;;;;8.85;4.10;;;24.30;99.90;;;;;;5029577;28;20057;-67
2022/07/04 06:48:26;;;;;;;10.52;4.25;;;24.50;99.90;;;;;;5022774;28;20099;-67
2022/07/04 06:50:52;;;;;;;7.47;3.85;;;24.60;99.90;;;;;;5014873;28;20084;-67
2022/07/04 06:53:18;;;;;;;8.98;3.97;;;24.70;99.90;;;;;;5030595;28;20033;-66
2022/07/04 06:55:43;;;;;;;7.90;4.00;;;24.70;99.90;;;;;;5033876;28;20139;-67
2022/07/04 06:58:09;;;;;;;9.15;4.38;;;24.80;99.90;;;;;;5029473;28;20041;-68
2022/07/04 07:00:36;;;;;;;12.48;4.25;;;24.40;99.90;;;;;;5031154;28;20037;-67
2022/07/04 07:03:03;;;;;;;7.35;3.92;;;23.70;99.90;;;;;;5034054;28;20045;-67
2022/07/04 07:05:29;;;;;;;12.23;4.53;;;23.20;99.90;;;;;;5032861;28;20033;-66
2022/07/04 07:07:55;;;;;;;13.85;4.40;;;22.60;99.90;;;;;;5033183;28;20064;-67
2022/07/04 07:10:21;;;;;;;11.43;4.30;;;22.30;99.90;;;;;;5028512;28;20095;-67
2022/07/04 07:12:47;;;;;;;10.45;4.60;;;22.30;99.90;;;;;;5033462;28;20073;-67
2022/07/04 07:15:13;;;;;;;14.20;4.60;;;22.10;99.90;;;;;;5031418;28;20059;-67
2022/07/04 07:17:40;;;;;;;10.35;4.40;;;22.00;99.90;;;;;;5028471;28;20366;-65
2022/07/04 07:20:06;;;;;;;11.57;4.68;;;21.90;99.90;;;;;;5028721;28;20047;-66
2022/07/04 07:22:32;;;;;;;9.70;4.70;;;22.20;99.90;;;;;;5014666;28;20071;-64
2022/07/04 07:24:58;;;;;;;13.13;4.93;;;22.30;99.90;;;;;;5037699;28;20033;-65
2022/07/04 07:27:24;;;;;;;9.50;4.50;;;22.60;99.90;;;;;;5032750;28;20041;-66
2022/07/04 07:29:49;;;;;;;8.93;4.32;;;22.60;99.90;;;;;;5027304;28;20033;-66
2022/07/04 07:32:15;;;;;;;11.45;4.85;;;22.70;99.90;;;;;;5029427;28;20505;-65
2022/07/04 07:34:41;;;;;;;10.25;3.92;;;22.50;99.90;;;;;;5030629;28;20037;-66
2022/07/04 07:37:06;;;;;;;12.18;3.63;;;22.20;99.90;;;;;;5026750;28;20052;-65
2022/07/04 07:39:32;;;;;;;10.32;3.72;;;22.00;99.90;;;;;;5029291;28;20028;-67
2022/07/04 07:41:58;;;;;;;9.73;3.47;;;21.60;99.90;;;;;;5020768;28;20514;-66
2022/07/04 07:44:24;;;;;;;7.15;3.30;;;21.30;99.90;;;;;;5029558;28;20097;-66
2022/07/04 07:46:49;;;;;;;8.43;3.70;;;21.20;99.90;;;;;;5037172;28;20069;-67
2022/07/04 07:49:15;;;;;;;8.45;4.00;;;21.20;99.90;;;;;;5033995;28;20041;-66
2022/07/04 07:51:41;;;;;;;10.85;4.07;;;21.30;99.90;;;;;;5043425;28;20462;-66
2022/07/04 07:54:07;;;;;;;10.55;4.18;;;21.50;99.90;;;;;;5031938;28;20043;-66
2022/07/04 07:56:33;;;;;;;7.25;3.20;;;21.40;99.90;;;;;;5034717;28;20359;-65
2022/07/04 07:59:01;;;;;;;7.70;3.17;;;21.20;99.90;;;;;;5048341;28;20111;-66
2022/07/04 08:01:27;;;;;;;7.10;2.85;;;21.30;99.90;;;;;;5032369;28;20522;-66
2022/07/04 08:06:37;;;;;;;9.57;3.13;;;21.60;99.90;;;;;;5043500;28;20054;-65
2022/07/04 08:09:03;;;;;;;10.18;3.70;;;21.70;99.90;;;;;;5030512;28;20518;-65
2022/07/04 08:11:29;;;;;;;7.80;3.47;;;21.60;99.90;;;;;;5015280;28;20351;-65
2022/07/04 08:13:55;;;;;;;7.93;3.35;;;21.60;99.90;;;;;;5034449;28;20049;-67
2022/07/04 08:16:20;;;;;;;7.78;3.15;;;21.50;99.90;;;;;;5040781;28;20033;-66
2022/07/04 08:18:46;;;;;;;8.80;3.13;;;21.70;99.90;;;;;;5048140;28;20119;-66
2022/07/04 08:21:13;;;;;;;5.97;2.78;;;21.80;99.90;;;;;;5043558;28;20136;-65
2022/07/04 08:23:39;;;;;;;6.72;2.88;;;21.90;99.90;;;;;;5008384;28;20038;-68
2022/07/04 08:26:05;;;;;;;6.57;2.42;;;22.10;99.90;;;;;;5052630;28;20120;-68
2022/07/04 08:28:31;;;;;;;6.63;2.58;;;22.20;99.90;;;;;;5031479;28;20132;-67
2022/07/04 08:30:57;;;;;;;7.47;3.00;;;22.20;99.90;;;;;;5033062;28;20063;-66
2022/07/04 08:33:23;;;;;;;7.72;2.45;;;22.20;99.90;;;;;;5035060;28;20037;-68
2022/07/04 08:35:49;;;;;;;8.57;2.53;;;22.20;99.90;;;;;;5036163;28;20051;-68
2022/07/04 08:38:18;;;;;;;5.10;2.42;;;22.20;99.90;;;;;;5034310;28;20311;-67
2022/07/04 08:40:44;;;;;;;8.63;2.40;;;22.40;99.90;;;;;;5022473;28;20041;-66
2022/07/04 08:43:14;;;;;;;7.63;2.42;;;22.50;99.90;;;;;;5031607;28;20037;-67
2022/07/04 08:45:40;;;;;;;6.55;2.08;;;22.40;99.90;;;;;;5034417;28;20370;-67
2022/07/04 08:48:08;;;;;;;8.05;2.33;;;22.30;99.90;;;;;;5033146;28;20041;-67
2022/07/04 08:50:37;;;;;;;6.00;2.10;;;22.30;99.90;;;;;;5029553;28;20068;-66
2022/07/04 08:53:09;;;;;;;4.53;1.85;;;22.40;99.90;;;;;;5033683;28;20039;-66
2022/07/04 08:58:25;;;;;;;5.18;1.88;;;22.30;99.90;;;;;;5052074;28;20178;-66
2022/07/04 09:00:56;;;;;;;6.47;2.17;;;22.10;99.90;;;;;;5032854;28;20041;-66
2022/07/04 09:03:22;;;;;;;6.05;1.80;;;21.70;99.90;;;;;;5034240;28;20077;-66
2022/07/04 09:05:48;;;;;;;6.97;2.15;;;21.60;99.90;;;;;;5030161;28;20044;-66
2022/07/04 09:08:14;;;;;;;4.40;2.05;;;21.60;99.90;;;;;;5030983;28;20048;-66
2022/07/04 09:10:39;;;;;;;8.93;2.38;;;21.70;99.90;;;;;;5033142;28;20040;-66
2022/07/04 09:13:07;;;;;;;4.72;1.88;;;21.60;99.90;;;;;;5030759;28;20184;-65
2022/07/04 09:15:33;;;;;;;4.82;1.50;;;21.70;99.90;;;;;;5029601;28;20032;-66
2022/07/04 09:18:00;;;;;;;4.75;1.70;;;21.70;99.90;;;;;;5033109;28;20563;-66
2022/07/04 09:20:27;;;;;;;4.35;1.55;;;22.00;99.90;;;;;;5029945;28;20049;-65
2022/07/04 09:22:54;;;;;;;3.40;1.55;;;22.20;99.90;;;;;;5042855;28;20421;-66
2022/07/04 09:25:24;;;;;;;3.47;1.30;;;22.10;99.90;;;;;;5021362;28;20048;-66
2022/07/04 09:27:52;;;;;;;5.22;1.70;;;22.20;99.90;;;;;;5035175;28;20120;-65
2022/07/04 09:30:22;;;;;;;3.05;1.17;;;22.10;99.90;;;;;;5029529;28;20037;-65
2022/07/04 09:33:02;;;;;;;4.47;1.65;;;22.20;99.90;;;;;;5037812;28;20104;-65
2022/07/04 09:35:31;;;;;;;4.93;1.77;;;22.20;99.90;;;;;;5055136;28;20043;-65
2022/07/04 09:37:59;;;;;;;2.53;1.20;;;22.20;99.90;;;;;;5037273;28;20037;-65
2022/07/04 09:43:20;;;;;;;5.57;1.90;;;22.00;99.90;;;;;;5032249;28;20441;-67
2022/07/04 09:46:01;;;;;;;1.90;1.23;;;21.80;99.90;;;;;;5032292;28;20060;-65
2022/07/04 09:48:47;;;;;;;3.38;1.30;;;21.70;99.70;;;;;;5033014;28;20037;-64
2022/07/04 09:51:12;;;;;;;6.72;2.20;;;21.60;99.40;;;;;;5029927;28;20351;-65
2022/07/04 09:53:38;;;;;;;4.32;1.77;;;21.60;99.90;;;;;;5030123;28;20052;-66
2022/07/04 09:56:04;;;;;;;6.82;2.10;;;21.70;99.90;;;;;;5032432;28;20446;-65
2022/07/04 09:58:29;;;;;;;7.93;2.00;;;21.90;99.90;;;;;;5030913;28;20039;-65
2022/07/04 10:00:59;;;;;;;6.55;1.90;;;22.10;99.90;;;;;;5030704;28;20043;-66
2022/07/04 10:03:32;;;;;;;7.93;2.60;;;22.20;99.80;;;;;;5031186;28;20037;-65
2022/07/04 10:06:04;;;;;;;6.43;2.67;;;22.20;99.90;;;;;;5032089;28;20107;-65
2022/07/04 10:08:31;;;;;;;3.90;1.80;;;22.20;99.90;;;;;;5052422;28;20087;-65
2022/07/04 10:11:01;;;;;;;3.63;1.73;;;22.10;99.90;;;;;;5045456;28;20069;-65
2022/07/04 10:13:27;;;;;;;4.38;1.50;;;22.00;99.90;;;;;;5049889;28;20127;-67
2022/07/04 10:15:53;;;;;;;4.88;1.73;;;22.20;99.90;;;;;;5033437;28;20043;-65
2022/07/04 10:18:22;;;;;;;4.53;1.95;;;22.20;99.90;;;;;;5044848;28;20037;-65
2022/07/04 10:20:49;;;;;;;5.43;1.92;;;22.20;98.70;;;;;;5028935;28;20061;-66
2022/07/04 10:23:15;;;;;;;6.88;2.50;;;22.10;98.80;;;;;;5029373;28;20059;-67
2022/07/04 10:25:41;;;;;;;4.53;1.60;;;22.00;99.20;;;;;;5028200;28;20445;-65
2022/07/04 10:28:08;;;;;;;3.67;1.50;;;22.00;99.50;;;;;;5044615;28;20117;-66
2022/07/04 10:30:40;;;;;;;4.93;1.60;;;22.00;99.80;;;;;;5032236;28;20041;-67
2022/07/04 10:33:08;;;;;;;2.63;1.15;;;21.90;99.70;;;;;;5033328;28;20065;-66
2022/07/04 10:35:57;;;;;;;5.25;1.70;;;22.00;99.90;;;;;;5043653;28;20029;-65
2022/07/04 10:38:45;;;;;;;2.83;1.52;;;22.10;99.90;;;;;;5047152;28;20373;-67
2022/07/04 10:41:11;;;;;;;5.35;2.03;;;22.20;99.90;;;;;;5020496;28;20049;-66
2022/07/04 10:43:51;;;;;;;7.22;2.25;;;22.30;99.90;;;;;;5028430;28;20036;-66
2022/07/04 10:46:27;;;;;;;5.38;1.60;;;22.40;99.40;;;;;;5023745;28;20175;-66
2022/07/04 10:48:56;;;;;;;4.80;1.90;;;22.50;99.00;;;;;;5036150;28;20099;-66
2022/07/04 10:51:45;;;;;;;3.10;1.30;;;22.50;99.00;;;;;;5042297;28;20037;-67
2022/07/04 10:54:32;;;;;;;3.88;1.40;;;22.50;98.50;;;;;;5019560;28;20041;-66
2022/07/04 10:57:19;;;;;;;1.88;1.02;;;22.60;98.40;;;;;;5024333;28;20037;-66
2022/07/04 10:59:56;;;;;;;2.05;1.38;;;22.50;98.30;;;;;;5033202;28;20037;-68
2022/07/04 11:02:30;;;;;;;3.10;1.30;;;22.30;98.50;;;;;;5014414;28;20068;-67
2022/07/04 11:05:03;;;;;;;7.60;1.73;;;22.40;99.00;;;;;;5022089;28;20041;-67
2022/07/04 11:07:39;;;;;;;6.72;1.42;;;22.30;99.40;;;;;;5032793;28;20072;-68
2022/07/04 11:10:33;;;;;;;5.18;1.80;;;22.30;98.70;;;;;;5023525;28;20105;-67
2022/07/04 11:12:57;;;;;;;3.40;1.83;;;22.40;98.60;;;;;;5043529;28;20084;-66
2022/07/04 11:15:43;;;;;;;6.03;1.50;;;22.40;98.80;;;;;;5032214;28;20061;-65
2022/07/04 11:18:10;;;;;;;1.63;1.25;;;22.40;98.70;;;;;;5040159;28;20051;-65
2022/07/04 11:20:41;;;;;;;3.85;1.63;;;22.40;98.70;;;;;;5030024;28;20114;-64
2022/07/04 11:23:07;;;;;;;3.30;1.42;;;22.50;98.90;;;;;;5033746;28;20057;-64
2022/07/04 11:25:33;;;;;;;3.00;1.50;;;22.50;98.80;;;;;;5036592;28;20469;-67
2022/07/04 11:28:20;;;;;;;5.78;1.60;;;22.40;98.90;;;;;;5027121;28;20135;-65
2022/07/04 11:30:54;;;;;;;10.68;2.03;;;22.40;99.50;;;;;;5029509;28;20110;-66
2022/07/04 11:33:22;;;;;;;7.13;1.98;;;22.50;99.00;;;;;;5036101;28;20032;-66
2022/07/04 11:36:08;;;;;;;5.57;1.70;;;22.50;99.20;;;;;;5027385;28;20041;-66
2022/07/04 11:38:47;;;;;;;4.43;1.55;;;22.40;99.10;;;;;;5034075;28;20034;-66
2022/07/04 11:46:47;;;;;;;4.85;1.60;;;22.70;98.60;;;;;;5039104;28;20106;-66
2022/07/04 11:49:13;;;;;;;3.83;1.50;;;22.60;98.70;;;;;;5027365;28;20124;-66
2022/07/04 11:51:46;;;;;;;3.13;1.70;;;22.70;98.80;;;;;;5030588;28;20140;-66
2022/07/04 11:54:12;;;;;;;7.68;1.83;;;22.70;98.50;;;;;;5031748;28;20368;-65
2022/07/04 11:56:38;;;;;;;5.57;1.50;;;22.50;98.70;;;;;;5031246;28;20041;-65
2022/07/04 11:59:15;;;;;;;4.05;1.20;;;22.60;98.70;;;;;;5034590;28;20029;-64
2022/07/04 12:01:44;;;;;;;3.10;1.38;;;22.50;98.00;;;;;;5031089;28;20045;-65
2022/07/04 12:04:15;;;;;;;5.05;1.63;;;22.50;97.90;;;;;;5020359;28;20078;-66
2022/07/04 12:06:43;;;;;;;4.60;1.38;;;22.70;97.60;;;;;;5035112;28;20083;-66
2022/07/04 12:09:09;;;;;;;3.90;1.40;;;22.50;97.70;;;;;;5034022;28;20374;-66
2022/07/04 12:11:55;;;;;;;3.88;1.40;;;22.40;98.10;;;;;;5034141;28;20075;-66
2022/07/04 12:14:22;;;;;;;4.55;1.20;;;22.30;97.90;;;;;;5047938;28;20339;-66
2022/07/04 12:16:48;;;;;;;6.18;1.35;;;22.30;97.80;;;;;;5019806;28;20037;-65
2022/07/04 12:19:13;;;;;;;11.52;1.92;;;22.10;97.70;;;;;;5028913;28;20041;-66
2022/07/04 12:21:42;;;;;;;3.03;1.67;;;22.20;97.60;;;;;;5033603;28;20550;-66
2022/07/04 12:24:08;;;;;;;7.05;1.52;;;22.20;97.30;;;;;;5033720;28;20044;-65
2022/07/04 12:26:44;;;;;;;4.65;1.45;;;22.30;97.30;;;;;;5034899;28;20037;-65
2022/07/04 12:29:09;;;;;;;7.60;1.60;;;22.50;97.20;;;;;;5037757;28;20052;-66
2022/07/04 12:31:41;;;;;;;3.78;1.23;;;22.20;96.90;;;;;;5032801;28;20041;-65
2022/07/04 12:34:17;;;;;;;2.13;1.23;;;22.30;96.70;;;;;;5027033;28;20041;-65
2022/07/04 12:36:52;;;;;;;1.92;0.90;;;22.50;96.90;;;;;;5024816;28;20124;-65
2022/07/04 12:39:34;;;;;;;2.17;0.90;;;22.60;96.80;;;;;;5037686;28;20033;-65
2022/07/04 12:42:19;;;;;;;3.53;1.15;;;22.40;96.40;;;;;;5045309;28;20128;-67
2022/07/04 12:44:49;;;;;;;5.45;1.88;;;22.50;96.70;;;;;;5038461;28;20040;-66
2022/07/04 12:47:15;;;;;;;4.28;1.30;;;22.60;96.30;;;;;;5039980;28;20041;-65
2022/07/04 12:49:46;;;;;;;8.85;1.40;;;22.60;96.30;;;;;;5044240;28;20033;-65
2022/07/04 12:52:15;;;;;;;12.20;1.25;;;22.60;96.40;;;;;;5052060;28;20510;-65
2022/07/04 12:54:42;;;;;;;3.97;1.20;;;22.70;96.20;;;;;;5034919;28;20037;-66
2022/07/04 12:57:15;;;;;;;4.00;1.45;;;22.70;96.10;;;;;;5035666;28;20044;-66
2022/07/04 12:59:42;;;;;;;;;;;22.70;96.10;;;;;;5027346;28;20126;-69
2022/07/04 13:02:09;;;;;;;4.25;1.02;;;22.70;96.50;;;;;;5053772;28;19920;-65
2022/07/04 13:04:35;;;;;;;4.00;1.50;;;22.90;95.90;;;;;;5031594;28;20056;-65
2022/07/04 13:07:16;;;;;;;4.15;1.05;;;22.60;95.90;;;;;;5037563;28;20052;-66
2022/07/04 13:09:43;;;;;;;2.90;1.17;;;22.60;95.60;;;;;;5032593;28;20052;-66